Time;durP1;ratioP1;P1;durP2;ratioP2;P2;SDS_P1;SDS_P2;PMS_P1;PMS_P2;Temp;Humidity;BMP_temperature;BMP_pressure;BME280_temperature;BME280_humidity;BME280_pressure;Samples;Min_cycle;Max_cycle;Signal;HPM_P1;HPM_P2
2023/12/11 00:00:31;;;;;;;44.63;7.88;;;11.90;99.90;;;;;;4998865;28;20022;-68
2023/12/11 00:02:58;;;;;;;34.28;6.97;;;11.90;99.90;;;;;;4999080;28;20029;-68
2023/12/11 00:05:24;;;;;;;35.63;6.90;;;11.90;99.90;;;;;;5000934;28;20030;-69
2023/12/11 00:07:50;;;;;;;44.15;7.82;;;11.90;99.90;;;;;;4995746;28;20042;-69
2023/12/11 00:10:15;;;;;;;45.38;7.95;;;11.90;99.90;;;;;;4979886;28;20034;-69
2023/12/11 00:12:41;;;;;;;41.05;7.07;;;11.90;99.90;;;;;;4999491;28;20048;-68
2023/12/11 00:15:10;;;;;;;42.80;7.20;;;12.00;99.90;;;;;;4979582;28;20235;-68
2023/12/11 00:17:35;;;;;;;46.10;8.23;;;11.90;99.90;;;;;;4994771;28;20033;-69
2023/12/11 00:20:01;;;;;;;37.90;7.40;;;11.90;99.90;;;;;;4996584;28;20077;-69
2023/12/11 00:22:27;;;;;;;39.78;7.88;;;12.00;99.90;;;;;;4996935;28;20399;-68
2023/12/11 00:24:52;;;;;;;41.65;6.78;;;11.90;99.90;;;;;;4998125;28;20034;-68
2023/12/11 00:27:18;;;;;;;41.05;7.70;;;11.90;99.90;;;;;;4999765;28;20025;-70
2023/12/11 00:29:44;;;;;;;41.63;7.22;;;12.00;99.90;;;;;;4996627;28;20058;-68
2023/12/11 00:32:10;;;;;;;38.85;7.30;;;12.00;99.90;;;;;;4996975;28;20029;-68
2023/12/11 00:34:35;;;;;;;50.63;7.70;;;12.00;99.90;;;;;;4999048;28;20034;-69
2023/12/11 00:37:01;;;;;;;40.15;7.45;;;11.90;99.90;;;;;;4996572;28;20749;-69
2023/12/11 00:39:27;;;;;;;38.45;7.40;;;11.90;99.90;;;;;;4989576;28;20033;-69
2023/12/11 00:41:53;;;;;;;43.45;7.00;;;11.90;99.90;;;;;;5001684;28;20022;-69
2023/12/11 00:44:19;;;;;;;39.53;8.05;;;11.90;99.90;;;;;;4996731;28;20455;-69
2023/12/11 00:46:45;;;;;;;52.45;15.40;;;11.90;99.90;;;;;;4998103;28;20104;-68
2023/12/11 00:49:11;;;;;;;33.67;6.80;;;12.00;99.90;;;;;;4981872;28;20057;-68
2023/12/11 00:51:36;;;;;;;45.25;7.75;;;11.90;99.90;;;;;;5008945;28;20056;-69
2023/12/11 00:54:02;;;;;;;52.58;8.52;;;11.90;99.90;;;;;;5007630;28;20498;-71
2023/12/11 00:56:28;;;;;;;36.75;6.82;;;11.90;99.90;;;;;;5010512;28;20030;-69
2023/12/11 00:58:54;;;;;;;48.55;7.85;;;12.00;99.90;;;;;;5008006;28;20546;-69
2023/12/11 01:01:19;;;;;;;39.90;8.00;;;11.90;99.90;;;;;;5007609;28;20406;-69
2023/12/11 01:03:45;;;;;;;43.80;8.05;;;12.00;99.90;;;;;;5011338;28;20121;-68
2023/12/11 01:06:11;;;;;;;33.75;6.60;;;11.90;99.90;;;;;;5010152;28;20034;-68
2023/12/11 01:08:39;;;;;;;45.83;7.47;;;11.90;99.90;;;;;;5007369;28;20037;-68
2023/12/11 01:11:06;;;;;;;42.08;7.75;;;11.90;99.90;;;;;;5009873;28;20095;-69
2023/12/11 01:13:32;;;;;;;48.55;7.55;;;11.90;99.90;;;;;;5005064;28;20063;-69
2023/12/11 01:15:58;;;;;;;47.33;7.40;;;11.80;99.90;;;;;;5010053;28;20597;-68
2023/12/11 01:18:24;;;;;;;50.10;7.18;;;11.90;99.90;;;;;;5010782;28;20025;-69
2023/12/11 01:20:51;;;;;;;35.45;7.07;;;11.90;99.90;;;;;;5005148;28;20478;-69
2023/12/11 01:23:18;;;;;;;37.83;6.72;;;11.90;99.90;;;;;;5010723;28;20025;-69
2023/12/11 01:25:43;;;;;;;41.97;7.10;;;11.90;99.90;;;;;;5008852;28;20088;-68
2023/12/11 01:28:09;;;;;;;41.30;6.63;;;11.90;99.90;;;;;;5008793;28;20033;-69
2023/12/11 01:30:35;;;;;;;45.45;6.38;;;11.90;99.90;;;;;;5007832;28;20089;-68
2023/12/11 01:33:03;;;;;;;36.47;7.38;;;11.90;99.90;;;;;;5009151;28;20139;-69
2023/12/11 01:35:29;;;;;;;38.80;7.53;;;11.80;99.90;;;;;;5013345;28;20018;-69
2023/12/11 01:37:55;;;;;;;37.20;7.05;;;11.70;99.90;;;;;;5006798;28;20442;-69
2023/12/11 01:40:20;;;;;;;42.90;7.25;;;11.70;99.90;;;;;;5013264;28;20057;-69
2023/12/11 01:42:46;;;;;;;46.80;7.35;;;11.80;99.90;;;;;;5013012;28;20368;-69
2023/12/11 01:45:12;;;;;;;31.13;6.05;;;11.80;99.90;;;;;;5013093;28;20045;-68
2023/12/11 01:47:38;;;;;;;39.88;6.25;;;11.70;99.90;;;;;;5009903;28;20130;-69
2023/12/11 01:50:08;;;;;;;43.58;7.95;;;11.70;99.90;;;;;;5012314;28;20037;-69
2023/12/11 01:52:34;;;;;;;44.60;7.28;;;11.70;99.90;;;;;;5010743;28;20065;-69
2023/12/11 01:55:01;;;;;;;29.65;6.82;;;11.80;99.90;;;;;;5012642;28;20507;-69
2023/12/11 01:57:29;;;;;;;39.60;7.50;;;11.70;99.90;;;;;;5013826;28;20032;-70
2023/12/11 01:59:56;;;;;;;35.10;6.43;;;11.70;99.90;;;;;;5012047;28;20054;-69
2023/12/11 02:02:22;;;;;;;40.47;7.07;;;11.80;99.90;;;;;;5009714;28;20025;-68
2023/12/11 02:04:49;;;;;;;41.45;7.05;;;11.80;99.90;;;;;;5012564;28;20026;-69
2023/12/11 02:07:16;;;;;;;40.88;6.65;;;11.70;99.90;;;;;;5010437;28;20087;-69
2023/12/11 02:09:42;;;;;;;31.73;6.07;;;11.80;99.90;;;;;;4992841;28;20389;-69
2023/12/11 02:12:07;;;;;;;33.67;6.40;;;11.70;99.90;;;;;;5009778;28;20145;-69
2023/12/11 02:14:33;;;;;;;46.40;7.63;;;11.70;99.90;;;;;;5012254;28;20108;-69
2023/12/11 02:16:59;;;;;;;38.08;6.63;;;11.70;99.90;;;;;;5011067;28;20461;-69
2023/12/11 02:19:25;;;;;;;25.05;6.30;;;11.70;99.90;;;;;;5013175;28;20026;-69
2023/12/11 02:21:52;;;;;;;40.38;7.95;;;11.70;99.90;;;;;;5011661;28;20462;-69
2023/12/11 02:24:27;;;;;;;32.78;5.82;;;11.70;99.90;;;;;;5010757;28;20363;-69
2023/12/11 02:26:53;;;;;;;46.92;8.00;;;11.70;99.90;;;;;;5012655;28;20466;-70
2023/12/11 02:29:20;;;;;;;41.55;6.45;;;11.70;99.90;;;;;;5012432;28;20034;-69
2023/12/11 02:31:45;;;;;;;40.55;8.15;;;11.70;99.90;;;;;;5010124;28;20026;-69
2023/12/11 02:34:11;;;;;;;32.55;6.38;;;11.70;99.90;;;;;;5012757;28;20037;-69
2023/12/11 02:36:37;;;;;;;44.25;7.72;;;11.70;99.90;;;;;;5010858;28;20018;-69
2023/12/11 02:39:03;;;;;;;47.63;6.90;;;11.70;99.90;;;;;;5011575;28;20029;-69
2023/12/11 02:41:28;;;;;;;38.95;6.97;;;11.70;99.90;;;;;;5008788;28;21043;-68
2023/12/11 02:43:54;;;;;;;38.42;7.63;;;11.60;99.90;;;;;;5011081;28;20551;-69
2023/12/11 02:46:20;;;;;;;32.25;6.35;;;11.60;99.90;;;;;;5011632;28;20112;-69
2023/12/11 02:48:46;;;;;;;35.53;7.00;;;11.50;99.90;;;;;;5011522;28;20169;-69
2023/12/11 02:51:11;;;;;;;36.10;6.85;;;11.50;99.90;;;;;;5012314;28;20026;-69
2023/12/11 02:53:37;;;;;;;39.00;6.13;;;11.50;99.90;;;;;;5011992;28;20049;-69
2023/12/11 02:56:03;;;;;;;36.22;6.10;;;11.40;99.90;;;;;;5013346;28;20108;-69
2023/12/11 02:58:29;;;;;;;26.17;5.45;;;11.50;99.90;;;;;;5011480;28;20034;-69
2023/12/11 03:00:55;;;;;;;27.48;5.32;;;11.50;99.90;;;;;;5010012;28;20033;-69
2023/12/11 03:03:20;;;;;;;27.63;5.75;;;11.50;99.90;;;;;;5012850;28;20131;-70
2023/12/11 03:05:46;;;;;;;40.13;5.97;;;11.50;99.90;;;;;;5011667;28;20085;-69
2023/12/11 03:08:12;;;;;;;42.90;6.38;;;11.60;99.90;;;;;;5010477;28;20103;-69
2023/12/11 03:10:37;;;;;;;39.65;6.03;;;11.60;99.90;;;;;;5009687;28;20499;-68
2023/12/11 03:13:03;;;;;;;43.80;6.35;;;11.40;99.90;;;;;;5009074;28;20038;-69
2023/12/11 03:15:30;;;;;;;37.30;6.40;;;11.40;99.90;;;;;;5011800;28;20057;-68
2023/12/11 03:17:56;;;;;;;33.45;6.03;;;11.40;99.90;;;;;;5010239;28;20081;-70
2023/12/11 03:20:22;;;;;;;41.88;6.28;;;11.30;99.90;;;;;;5009370;28;20510;-70
2023/12/11 03:22:47;;;;;;;38.05;6.88;;;11.40;99.90;;;;;;5011816;28;20057;-69
2023/12/11 03:25:13;;;;;;;39.45;6.80;;;11.50;99.90;;;;;;5011019;28;20481;-69
2023/12/11 03:27:39;;;;;;;37.97;6.50;;;11.50;99.90;;;;;;5008136;28;20045;-69
2023/12/11 03:30:05;;;;;;;33.60;6.68;;;11.50;99.90;;;;;;4994343;28;20111;-69
2023/12/11 03:32:31;;;;;;;48.85;7.82;;;11.60;99.90;;;;;;4995533;28;20037;-69
2023/12/11 03:34:57;;;;;;;43.42;7.32;;;11.50;99.90;;;;;;5011086;28;20022;-69
2023/12/11 03:37:23;;;;;;;34.30;6.57;;;11.50;99.90;;;;;;5012122;28;20068;-69
2023/12/11 03:39:48;;;;;;;46.25;6.68;;;11.50;99.90;;;;;;5010976;28;20120;-69
2023/12/11 03:42:14;;;;;;;29.88;5.80;;;11.50;99.90;;;;;;5009768;28;20437;-68
2023/12/11 03:44:40;;;;;;;41.55;6.50;;;11.40;99.90;;;;;;5007683;28;20030;-69
2023/12/11 03:47:05;;;;;;;42.40;6.38;;;11.50;99.90;;;;;;5012002;28;20552;-69
2023/12/11 03:49:31;;;;;;;41.63;6.60;;;11.40;99.90;;;;;;5012412;28;20120;-69
2023/12/11 03:51:57;;;;;;;48.35;6.88;;;11.40;99.90;;;;;;5006905;28;20117;-69
2023/12/11 03:54:23;;;;;;;34.55;5.97;;;11.40;99.90;;;;;;5011104;28;20083;-69
2023/12/11 03:56:48;;;;;;;33.50;5.53;;;11.30;99.90;;;;;;5011420;28;20049;-69
2023/12/11 03:59:15;;;;;;;36.17;6.80;;;11.20;99.90;;;;;;5008688;28;20030;-69
2023/12/11 04:01:40;;;;;;;37.40;5.97;;;11.20;99.90;;;;;;5010671;28;20030;-69
2023/12/11 04:04:06;;;;;;;45.33;5.90;;;11.30;99.90;;;;;;5011309;28;20497;-69
2023/12/11 04:06:32;;;;;;;34.30;6.20;;;11.20;99.90;;;;;;5009135;28;20032;-69
2023/12/11 04:08:58;;;;;;;29.85;5.70;;;11.20;99.90;;;;;;5009971;28;20029;-69
2023/12/11 04:11:24;;;;;;;34.33;5.68;;;11.20;99.90;;;;;;5008467;28;20034;-71
2023/12/11 04:13:49;;;;;;;39.28;6.32;;;11.20;99.90;;;;;;5009284;28;20102;-69
2023/12/11 04:16:15;;;;;;;44.28;6.18;;;11.30;99.90;;;;;;5011247;28;20100;-68
2023/12/11 04:18:42;;;;;;;38.35;5.95;;;11.30;99.90;;;;;;5008924;28;20108;-69
2023/12/11 04:21:08;;;;;;;38.60;6.55;;;11.30;99.90;;;;;;5010377;28;20013;-69
2023/12/11 04:23:33;;;;;;;33.45;5.78;;;11.30;99.90;;;;;;5011693;28;20466;-71
2023/12/11 04:26:00;;;;;;;44.40;7.32;;;11.30;99.90;;;;;;5011866;28;20407;-69
2023/12/11 04:28:28;;;;;;;36.38;5.00;;;11.30;99.90;;;;;;5009167;28;20030;-69
2023/12/11 04:30:54;;;;;;;39.00;5.82;;;11.30;99.90;;;;;;5008034;28;20383;-69
2023/12/11 04:33:20;;;;;;;28.65;5.35;;;11.30;99.90;;;;;;5010544;28;20038;-68
2023/12/11 04:35:46;;;;;;;38.53;6.18;;;11.30;99.90;;;;;;5011025;28;20046;-69
2023/12/11 04:38:12;;;;;;;34.90;5.72;;;11.20;99.90;;;;;;5010639;28;20486;-69
2023/12/11 04:40:38;;;;;;;31.25;5.32;;;11.20;99.90;;;;;;5008304;28;20067;-69
2023/12/11 04:43:04;;;;;;;33.22;5.78;;;11.20;99.90;;;;;;5010380;28;20038;-71
2023/12/11 04:45:30;;;;;;;27.70;5.30;;;11.20;99.90;;;;;;5008544;28;20037;-69
2023/12/11 04:47:56;;;;;;;34.88;5.43;;;11.20;99.90;;;;;;5010898;28;20049;-69
2023/12/11 04:50:22;;;;;;;29.20;5.32;;;11.30;99.90;;;;;;5006628;28;20065;-68
2023/12/11 04:52:48;;;;;;;39.97;5.32;;;11.30;99.90;;;;;;5010872;28;20065;-70
2023/12/11 04:55:14;;;;;;;31.00;5.43;;;11.20;99.90;;;;;;4991921;28;20022;-69
2023/12/11 04:57:39;;;;;;;32.65;6.18;;;11.20;99.90;;;;;;5009261;28;20032;-68
2023/12/11 05:00:07;;;;;;;36.22;6.00;;;11.20;99.90;;;;;;5010590;28;20037;-69
2023/12/11 05:02:33;;;;;;;30.20;5.22;;;11.20;99.90;;;;;;5007778;28;20029;-69
2023/12/11 05:04:58;;;;;;;39.80;6.45;;;11.20;99.90;;;;;;5010533;28;20034;-69
2023/12/11 05:07:24;;;;;;;32.20;5.38;;;11.20;99.90;;;;;;5007899;28;20038;-68
2023/12/11 05:09:50;;;;;;;32.78;6.43;;;11.10;99.90;;;;;;5014234;28;20117;-68
2023/12/11 05:12:15;;;;;;;32.25;5.32;;;11.10;99.90;;;;;;5012321;28;20081;-70
2023/12/11 05:14:41;;;;;;;41.88;6.47;;;11.10;99.90;;;;;;5013150;28;20117;-69
2023/12/11 05:17:07;;;;;;;26.90;5.45;;;11.10;99.90;;;;;;5011773;28;20033;-69
2023/12/11 05:19:33;;;;;;;36.53;5.95;;;11.20;99.90;;;;;;5012095;28;20029;-69
2023/12/11 05:21:58;;;;;;;30.65;6.22;;;11.10;99.90;;;;;;5013466;28;20014;-69
2023/12/11 05:24:25;;;;;;;41.50;6.13;;;11.10;99.90;;;;;;5010305;28;20036;-69
2023/12/11 05:26:51;;;;;;;29.33;5.63;;;11.20;99.90;;;;;;5015217;28;20371;-68
2023/12/11 05:29:17;;;;;;;35.83;5.65;;;11.10;99.90;;;;;;5010368;28;20038;-69
2023/12/11 05:31:43;;;;;;;36.95;5.70;;;11.10;99.90;;;;;;5013973;28;20092;-69
2023/12/11 05:34:08;;;;;;;36.92;5.10;;;11.10;99.90;;;;;;5011346;28;20103;-69
2023/12/11 05:36:34;;;;;;;30.73;5.13;;;11.10;99.90;;;;;;5014449;28;20022;-69
2023/12/11 05:39:00;;;;;;;36.40;6.03;;;11.10;99.90;;;;;;5012394;28;20034;-69
2023/12/11 05:41:27;;;;;;;37.08;6.97;;;11.10;99.90;;;;;;5014468;28;20038;-69
2023/12/11 05:43:52;;;;;;;29.23;5.43;;;11.10;99.90;;;;;;5012679;28;20501;-68
2023/12/11 05:46:18;;;;;;;29.40;5.70;;;11.10;99.90;;;;;;5012366;28;20096;-69
2023/12/11 05:48:44;;;;;;;21.58;4.75;;;11.10;99.90;;;;;;5014494;28;20077;-68
2023/12/11 05:51:10;;;;;;;30.55;6.05;;;11.10;99.90;;;;;;5011101;28;20034;-69
2023/12/11 05:53:35;;;;;;;38.50;6.22;;;11.20;99.90;;;;;;5012182;28;20026;-69
2023/12/11 05:56:01;;;;;;;31.65;5.53;;;11.10;99.90;;;;;;5011761;28;20026;-69
2023/12/11 05:58:27;;;;;;;24.10;5.95;;;11.20;99.90;;;;;;5013241;28;20037;-69
2023/12/11 06:00:53;;;;;;;38.50;6.88;;;11.10;99.90;;;;;;5010728;28;20030;-69
2023/12/11 06:03:18;;;;;;;33.13;5.63;;;11.20;99.90;;;;;;5013356;28;20030;-69
2023/12/11 06:05:44;;;;;;;32.80;6.30;;;11.20;99.90;;;;;;5012663;28;20075;-69
2023/12/11 06:08:10;;;;;;;30.63;5.07;;;11.20;99.90;;;;;;5009772;28;20037;-69
2023/12/11 06:10:36;;;;;;;31.85;5.60;;;11.30;99.90;;;;;;5013104;28;20030;-69
2023/12/11 06:13:02;;;;;;;34.97;5.78;;;11.30;99.90;;;;;;5010835;28;20048;-69
2023/12/11 06:15:28;;;;;;;41.05;6.55;;;11.20;99.90;;;;;;5012489;28;20113;-69
2023/12/11 06:17:54;;;;;;;27.50;5.40;;;11.30;99.90;;;;;;5012833;28;20105;-69
2023/12/11 06:20:20;;;;;;;26.30;5.75;;;11.20;99.90;;;;;;5008371;28;20038;-69
2023/12/11 06:22:48;;;;;;;34.58;7.05;;;11.10;99.90;;;;;;5013992;28;20093;-69
2023/12/11 06:25:14;;;;;;;35.10;5.68;;;11.10;99.90;;;;;;5011622;28;20471;-69
2023/12/11 06:27:40;;;;;;;39.03;5.30;;;11.10;99.90;;;;;;5011782;28;20049;-69
2023/12/11 06:30:07;;;;;;;29.38;5.63;;;11.10;99.90;;;;;;5010324;28;20486;-68
2023/12/11 06:32:33;;;;;;;28.85;5.70;;;11.20;99.90;;;;;;5012263;28;20041;-68
2023/12/11 06:34:59;;;;;;;32.30;5.72;;;11.20;99.90;;;;;;5010337;28;20369;-69
2023/12/11 06:37:25;;;;;;;33.90;5.22;;;11.20;99.90;;;;;;5011221;28;20471;-69
2023/12/11 06:39:50;;;;;;;36.92;5.85;;;11.30;99.90;;;;;;5010098;28;20034;-68
2023/12/11 06:42:16;;;;;;;30.67;6.22;;;11.20;99.90;;;;;;5012079;28;20041;-69
2023/12/11 06:44:42;;;;;;;36.90;5.15;;;11.20;99.90;;;;;;5010306;28;20033;-69
2023/12/11 06:47:08;;;;;;;31.42;4.95;;;11.20;99.90;;;;;;5011235;28;20065;-69
2023/12/11 06:49:34;;;;;;;33.03;5.93;;;11.20;99.90;;;;;;5009921;28;20025;-70
2023/12/11 06:52:00;;;;;;;30.85;5.22;;;11.20;99.90;;;;;;5011055;28;20045;-69
2023/12/11 06:54:25;;;;;;;32.55;5.43;;;11.20;99.90;;;;;;5008284;28;20034;-69
2023/12/11 06:56:51;;;;;;;39.83;10.50;;;11.20;99.90;;;;;;5013026;28;20483;-69
2023/12/11 06:59:17;;;;;;;30.73;5.20;;;11.30;99.90;;;;;;5010265;28;20370;-69
2023/12/11 07:01:43;;;;;;;33.75;5.30;;;11.30;99.90;;;;;;5010523;28;20026;-69
2023/12/11 07:04:08;;;;;;;35.85;5.18;;;11.20;99.90;;;;;;5011098;28;20034;-69
2023/12/11 07:06:34;;;;;;;28.40;5.20;;;11.20;99.90;;;;;;5009692;28;20026;-69
2023/12/11 07:09:00;;;;;;;37.30;6.47;;;11.20;99.90;;;;;;5012278;28;20040;-69
2023/12/11 07:11:26;;;;;;;28.85;5.15;;;11.20;99.90;;;;;;5009544;28;20034;-69
2023/12/11 07:13:53;;;;;;;28.92;5.10;;;11.20;99.90;;;;;;5011808;28;20092;-69
2023/12/11 07:16:19;;;;;;;28.95;5.72;;;11.20;99.90;;;;;;5010226;28;20028;-69
2023/12/11 07:18:45;;;;;;;27.55;5.22;;;11.20;99.90;;;;;;5010729;28;20038;-69
2023/12/11 07:21:12;;;;;;;28.42;5.85;;;11.20;99.90;;;;;;4992859;28;20036;-69
2023/12/11 07:23:38;;;;;;;28.30;5.32;;;11.10;99.90;;;;;;5008609;28;20080;-72
2023/12/11 07:26:09;;;;;;;34.42;5.82;;;11.20;99.90;;;;;;4994141;28;20033;-72
2023/12/11 07:28:38;;;;;;;37.00;5.90;;;11.20;99.90;;;;;;5009075;28;20042;-69
2023/12/11 07:31:05;;;;;;;28.65;5.10;;;11.10;99.90;;;;;;5010288;28;20025;-70
2023/12/11 07:33:32;;;;;;;32.92;5.35;;;11.00;99.90;;;;;;5010763;28;20497;-70
2023/12/11 07:35:58;;;;;;;31.50;4.72;;;11.10;99.90;;;;;;5007989;28;20026;-70
2023/12/11 07:38:25;;;;;;;27.70;4.95;;;11.00;99.90;;;;;;5009745;28;20087;-70
2023/12/11 07:40:52;;;;;;;39.10;6.07;;;11.00;99.90;;;;;;5009303;28;20502;-71
2023/12/11 07:43:18;;;;;;;28.48;4.38;;;11.00;99.90;;;;;;5011450;28;20054;-70
2023/12/11 07:45:44;;;;;;;41.75;6.40;;;11.00;99.90;;;;;;5007500;28;20513;-69
2023/12/11 07:48:10;;;;;;;31.58;5.32;;;11.10;99.90;;;;;;5007359;28;20080;-69
2023/12/11 07:50:35;;;;;;;33.17;5.32;;;11.10;99.90;;;;;;5010304;28;20489;-70
2023/12/11 07:53:01;;;;;;;35.55;7.00;;;11.00;99.90;;;;;;4991776;28;20026;-69
2023/12/11 07:55:28;;;;;;;32.03;5.35;;;11.00;99.90;;;;;;5009385;28;20478;-69
2023/12/11 07:57:54;;;;;;;34.50;6.35;;;11.10;99.90;;;;;;5008072;28;20034;-70
2023/12/11 08:00:20;;;;;;;28.90;5.20;;;11.00;99.90;;;;;;5010834;28;20030;-69
2023/12/11 08:02:46;;;;;;;29.40;5.25;;;11.00;99.90;;;;;;5009538;28;20014;-69
2023/12/11 08:05:11;;;;;;;37.83;5.75;;;11.10;99.90;;;;;;5011083;28;20080;-69
2023/12/11 08:07:38;;;;;;;31.30;5.60;;;11.10;99.90;;;;;;4993969;28;20561;-69
2023/12/11 08:10:04;;;;;;;21.77;4.60;;;11.20;99.90;;;;;;5006306;28;20029;-69
2023/12/11 08:12:33;;;;;;;30.63;5.88;;;11.10;99.90;;;;;;5008713;28;20033;-69
2023/12/11 08:14:58;;;;;;;34.72;5.82;;;11.10;99.90;;;;;;5006167;28;20521;-70
2023/12/11 08:17:24;;;;;;;38.13;6.35;;;11.00;99.90;;;;;;5007515;28;20041;-70
2023/12/11 08:19:51;;;;;;;30.13;4.85;;;11.00;99.90;;;;;;5008077;28;20084;-69
2023/12/11 08:22:17;;;;;;;30.30;5.13;;;11.00;99.90;;;;;;5009676;28;20025;-70
2023/12/11 08:24:43;;;;;;;32.17;5.25;;;11.00;99.90;;;;;;4995597;28;20025;-70
2023/12/11 08:27:09;;;;;;;27.60;5.80;;;11.00;99.90;;;;;;5010901;28;20034;-71
2023/12/11 08:29:36;;;;;;;29.70;5.50;;;11.00;99.90;;;;;;5008462;28;20041;-71
2023/12/11 08:32:02;;;;;;;31.08;5.90;;;11.00;99.90;;;;;;5011550;28;20787;-70
2023/12/11 08:34:28;;;;;;;37.25;7.20;;;11.00;99.90;;;;;;5011107;28;20376;-70
2023/12/11 08:36:54;;;;;;;28.35;5.88;;;11.00;99.90;;;;;;5008854;28;20109;-70
2023/12/11 08:39:20;;;;;;;26.05;6.07;;;11.00;99.90;;;;;;5007062;28;20494;-69
2023/12/11 08:41:47;;;;;;;40.65;6.47;;;11.00;99.90;;;;;;5009339;28;20029;-69
2023/12/11 08:44:13;;;;;;;34.45;5.80;;;11.10;99.90;;;;;;5008430;28;20490;-69
2023/12/11 08:46:39;;;;;;;29.25;5.60;;;11.10;99.90;;;;;;5008940;28;20053;-70
2023/12/11 08:49:05;;;;;;;24.15;5.00;;;11.10;99.90;;;;;;5008640;28;20467;-70
2023/12/11 08:51:32;;;;;;;32.58;5.82;;;11.00;99.90;;;;;;5011184;28;20076;-70
2023/12/11 08:53:57;;;;;;;35.80;5.65;;;11.10;99.90;;;;;;5008437;28;20041;-70
2023/12/11 08:56:23;;;;;;;25.48;4.80;;;11.00;99.90;;;;;;5010556;28;20394;-71
2023/12/11 08:58:50;;;;;;;29.17;5.18;;;11.00;99.90;;;;;;5010951;28;20037;-70
2023/12/11 09:01:16;;;;;;;24.55;4.90;;;11.00;99.90;;;;;;5008302;28;20026;-70
2023/12/11 09:03:44;;;;;;;19.05;5.22;;;11.00;99.90;;;;;;5009420;28;20072;-71
2023/12/11 09:06:13;;;;;;;23.88;4.72;;;11.00;99.90;;;;;;5007215;28;20014;-71
2023/12/11 09:08:39;;;;;;;24.77;5.43;;;11.10;99.90;;;;;;5010855;28;20026;-70
2023/12/11 09:11:05;;;;;;;20.27;3.72;;;11.10;99.90;;;;;;5007872;28;20064;-70
2023/12/11 09:13:31;;;;;;;26.20;4.45;;;11.20;99.90;;;;;;5009500;28;20034;-70
2023/12/11 09:15:57;;;;;;;32.55;4.85;;;11.10;99.90;;;;;;5010532;28;20057;-70
2023/12/11 09:18:23;;;;;;;18.20;3.72;;;11.20;99.90;;;;;;5010055;28;20022;-70
2023/12/11 09:20:49;;;;;;;22.60;4.13;;;11.20;99.90;;;;;;5010572;28;20022;-70
2023/12/11 09:23:15;;;;;;;33.78;5.32;;;11.20;99.90;;;;;;5009930;28;20466;-70
2023/12/11 09:25:41;;;;;;;24.45;4.78;;;11.20;99.90;;;;;;5007592;28;20029;-70
2023/12/11 09:28:07;;;;;;;24.13;3.70;;;11.20;99.90;;;;;;5010869;28;20033;-69
2023/12/11 09:30:32;;;;;;;28.83;4.85;;;11.20;99.90;;;;;;5006496;28;20060;-70
2023/12/11 09:32:58;;;;;;;19.83;3.85;;;11.20;99.90;;;;;;5008498;28;20030;-70
2023/12/11 09:35:24;;;;;;;27.98;4.95;;;11.10;99.90;;;;;;5005403;28;20459;-70
2023/12/11 09:37:50;;;;;;;20.15;4.80;;;11.20;99.90;;;;;;5009523;28;20041;-70
2023/12/11 09:40:16;;;;;;;28.13;5.78;;;11.10;99.90;;;;;;5007528;28;20026;-70
2023/12/11 09:42:43;;;;;;;19.77;3.95;;;11.10;99.90;;;;;;5009380;28;20072;-70
2023/12/11 09:45:13;;;;;;;22.00;4.55;;;11.10;99.90;;;;;;5009280;28;20052;-70
2023/12/11 09:47:43;;;;;;;18.95;4.07;;;11.20;99.90;;;;;;5006626;28;20045;-70
2023/12/11 09:50:09;;;;;;;19.25;3.42;;;11.10;99.90;;;;;;5009051;28;20057;-70
2023/12/11 09:52:41;;;;;;;23.08;4.70;;;11.10;99.90;;;;;;5009642;28;20018;-70
2023/12/11 09:55:08;;;;;;;27.52;5.28;;;11.10;99.90;;;;;;5007904;28;20037;-70
2023/12/11 09:57:35;;;;;;;23.00;4.13;;;11.10;99.90;;;;;;4990011;28;20058;-71
2023/12/11 10:00:02;;;;;;;21.48;4.45;;;11.10;99.90;;;;;;4994874;28;20050;-70
2023/12/11 10:02:28;;;;;;;23.73;4.00;;;11.10;99.90;;;;;;5010996;28;20036;-69
2023/12/11 10:05:08;;;;;;;22.17;4.55;;;11.10;99.90;;;;;;5013573;28;20029;-69
2023/12/11 10:07:35;;;;;;;21.42;4.43;;;11.10;99.90;;;;;;5011737;28;20065;-70
2023/12/11 10:10:27;;;;;;;20.20;4.65;;;11.20;99.90;;;;;;5012267;28;20017;-71
2023/12/11 10:12:56;;;;;;;26.10;3.47;;;11.10;99.90;;;;;;5012191;28;20037;-70
2023/12/11 10:15:29;;;;;;;17.50;3.75;;;11.10;99.90;;;;;;5014268;28;20475;-69
2023/12/11 10:18:12;;;;;;;19.88;3.83;;;11.10;99.90;;;;;;5010293;28;20064;-70
2023/12/11 10:20:40;;;;;;;25.15;3.67;;;11.20;99.90;;;;;;5010669;28;20031;-69
2023/12/11 10:23:12;;;;;;;14.25;3.25;;;11.20;99.90;;;;;;5009128;28;20475;-70
2023/12/11 10:25:41;;;;;;;16.48;3.80;;;11.10;99.90;;;;;;5011801;28;20014;-69
2023/12/11 10:28:09;;;;;;;18.35;4.00;;;11.10;99.90;;;;;;5011633;28;20076;-70
2023/12/11 10:30:55;;;;;;;19.75;3.83;;;11.20;99.90;;;;;;5005783;28;20429;-69
2023/12/11 10:33:23;;;;;;;19.40;3.72;;;11.10;99.90;;;;;;5012620;28;20502;-69
2023/12/11 10:35:49;;;;;;;22.88;4.13;;;11.20;99.90;;;;;;5012881;28;20033;-70
2023/12/11 10:38:24;;;;;;;14.18;3.58;;;11.20;99.90;;;;;;5012634;28;20057;-69
2023/12/11 10:40:51;;;;;;;18.67;3.28;;;11.20;99.90;;;;;;5007678;28;20033;-69
2023/12/11 10:43:18;;;;;;;15.70;3.38;;;11.10;99.90;;;;;;5010688;28;20061;-69
2023/12/11 10:45:45;;;;;;;15.68;3.70;;;11.20;99.90;;;;;;5011809;28;20021;-69
2023/12/11 10:48:11;;;;;;;15.43;3.15;;;11.20;99.90;;;;;;5012359;28;20034;-69
2023/12/11 10:50:37;;;;;;;18.75;4.45;;;11.30;99.90;;;;;;4990110;28;20027;-70
2023/12/11 10:53:06;;;;;;;19.45;4.50;;;11.40;99.90;;;;;;4983799;28;20125;-70
2023/12/11 10:55:33;;;;;;;18.27;5.25;;;11.50;99.90;;;;;;4994531;28;20517;-69
2023/12/11 10:58:00;;;;;;;16.75;3.35;;;11.50;99.90;;;;;;4996641;28;20038;-70
2023/12/11 11:00:27;;;;;;;18.15;4.07;;;11.50;99.90;;;;;;4996717;28;20120;-69
2023/12/11 11:02:55;;;;;;;16.02;3.20;;;11.50;99.90;;;;;;4997486;28;20030;-68
2023/12/11 11:05:23;;;;;;;15.25;4.45;;;11.50;99.90;;;;;;4994022;28;20051;-69
2023/12/11 11:08:01;;;;;;;17.98;3.70;;;11.60;99.90;;;;;;4995499;28;20026;-70
2023/12/11 11:10:33;;;;;;;16.77;3.17;;;11.60;99.90;;;;;;4999003;28;20037;-69
2023/12/11 11:13:16;;;;;;;12.63;3.50;;;11.50;99.90;;;;;;4997380;28;20042;-70
2023/12/11 11:15:42;;;;;;;16.98;4.05;;;11.50;99.90;;;;;;4997734;28;20034;-70
2023/12/11 11:18:10;;;;;;;21.70;3.20;;;11.50;99.90;;;;;;4996182;28;20496;-69
2023/12/11 11:20:37;;;;;;;21.90;3.45;;;11.60;99.90;;;;;;4985901;28;20030;-68
2023/12/11 11:23:18;;;;;;;19.95;3.05;;;11.50;99.90;;;;;;5001546;28;20038;-70
2023/12/11 11:25:54;;;;;;;12.20;2.90;;;11.50;99.90;;;;;;4995420;28;20030;-69
2023/12/11 11:28:38;;;;;;;15.07;3.05;;;11.60;99.90;;;;;;4997503;28;20030;-68
2023/12/11 11:31:05;;;;;;;19.02;3.70;;;11.40;99.90;;;;;;4996775;28;20042;-68
2023/12/11 11:33:49;;;;;;;18.48;3.50;;;11.40;99.90;;;;;;4996437;28;20478;-68
2023/12/11 11:36:17;;;;;;;17.70;3.17;;;11.50;99.90;;;;;;4998294;28;20113;-67
2023/12/11 11:38:53;;;;;;;13.15;3.25;;;11.60;99.90;;;;;;4998008;28;20552;-72
2023/12/11 11:41:29;;;;;;;14.75;3.38;;;11.50;99.90;;;;;;4993053;28;20030;-72
2023/12/11 11:44:06;;;;;;;16.25;3.22;;;11.60;99.90;;;;;;4993919;28;20418;-69
2023/12/11 11:46:52;;;;;;;22.17;4.00;;;11.60;99.90;;;;;;4992778;28;20408;-68
2023/12/11 11:49:26;;;;;;;16.70;3.17;;;11.60;99.90;;;;;;4998126;28;20489;-68
2023/12/11 11:51:52;;;;;;;15.68;3.50;;;11.60;99.90;;;;;;4997056;28;20037;-70
2023/12/11 11:54:23;;;;;;;17.17;3.03;;;11.70;99.90;;;;;;4993812;28;20067;-68
2023/12/11 11:56:49;;;;;;;11.65;3.05;;;11.70;99.90;;;;;;4978757;28;20387;-68
2023/12/11 11:59:14;;;;;;;14.30;3.35;;;11.90;99.90;;;;;;4989597;28;20041;-71
2023/12/11 12:01:49;;;;;;;13.43;2.90;;;12.00;99.90;;;;;;4989798;28;20081;-70
2023/12/11 12:04:29;;;;;;;14.23;2.95;;;12.00;99.90;;;;;;4994061;28;20084;-70
2023/12/11 12:07:06;;;;;;;14.50;3.03;;;12.00;99.90;;;;;;4997406;28;20025;-70
2023/12/11 12:09:33;;;;;;;10.15;2.78;;;12.00;99.90;;;;;;4990679;28;20027;-69
2023/12/11 12:12:00;;;;;;;15.80;2.63;;;12.00;99.90;;;;;;4995854;28;20053;-70
2023/12/11 12:14:26;;;;;;;12.98;3.40;;;11.80;99.90;;;;;;4994922;28;20160;-69
2023/12/11 12:16:52;;;;;;;12.68;3.38;;;11.80;99.90;;;;;;4994832;28;20025;-68
2023/12/11 12:19:34;;;;;;;14.38;2.95;;;11.70;99.90;;;;;;4994760;28;20066;-70
2023/12/11 12:22:03;;;;;;;16.73;3.28;;;11.80;99.90;;;;;;4996887;28;20052;-72
2023/12/11 12:24:30;;;;;;;14.07;3.40;;;11.80;99.90;;;;;;4994288;28;20076;-70
2023/12/11 12:27:05;;;;;;;11.30;2.55;;;11.90;99.90;;;;;;4995339;28;20022;-69
2023/12/11 12:29:32;;;;;;;13.40;3.30;;;12.00;99.90;;;;;;4990884;28;20060;-69
2023/12/11 12:31:59;;;;;;;12.38;3.38;;;12.10;99.90;;;;;;4997992;28;20602;-70
2023/12/11 12:34:27;;;;;;;13.48;3.20;;;12.10;99.90;;;;;;4996103;28;20042;-69